Time;durP1;ratioP1;P1;durP2;ratioP2;P2;SDS_P1;SDS_P2;PMS_P1;PMS_P2;Temp;Humidity;BMP_temperature;BMP_pressure;BME280_temperature;BME280_humidity;BME280_pressure;Samples;Min_cycle;Max_cycle;Signal;HPM_P1;HPM_P2
2023/07/09 00:02:16;;;;;;;5.60;3.75;;;27.90;96.70;;;;;;4922764;29;20521;-82
2023/07/09 00:04:44;;;;;;;5.63;3.70;;;27.90;96.70;;;;;;4930725;29;20102;-82
2023/07/09 00:07:18;;;;;;;5.05;3.45;;;27.90;96.70;;;;;;4949699;28;20074;-83
2023/07/09 00:09:46;;;;;;;4.50;3.58;;;28.00;96.70;;;;;;4967417;28;20126;-83
2023/07/09 00:12:17;;;;;;;7.65;3.53;;;27.90;96.70;;;;;;4953138;28;20129;-81
2023/07/09 00:14:46;;;;;;;8.45;4.05;;;27.80;96.70;;;;;;4952906;28;20069;-82
2023/07/09 00:17:21;;;;;;;4.97;3.63;;;27.60;96.70;;;;;;4942269;28;20567;-82
2023/07/09 00:19:49;;;;;;;6.75;3.75;;;27.50;96.70;;;;;;4958336;28;20047;-83
2023/07/09 00:22:19;;;;;;;5.38;3.85;;;27.60;96.70;;;;;;4952925;28;20043;-83
2023/07/09 00:24:50;;;;;;;5.78;3.65;;;27.50;96.70;;;;;;4960364;28;20593;-83
2023/07/09 00:27:21;;;;;;;6.50;3.85;;;27.60;96.70;;;;;;4949823;28;20059;-83
2023/07/09 00:29:52;;;;;;;4.47;3.83;;;27.60;96.70;;;;;;4950462;28;20633;-82
2023/07/09 00:32:21;;;;;;;5.25;3.60;;;27.60;96.70;;;;;;4952436;28;20137;-83
2023/07/09 00:34:49;;;;;;;7.03;4.05;;;27.50;96.70;;;;;;4959040;28;20402;-82
2023/07/09 00:37:19;;;;;;;5.93;4.13;;;27.50;96.70;;;;;;4941035;29;20043;-83
2023/07/09 00:39:48;;;;;;;6.20;3.70;;;27.40;96.70;;;;;;4965999;28;20051;-82
2023/07/09 00:42:17;;;;;;;7.03;3.67;;;27.40;96.70;;;;;;4952369;28;20047;-82
2023/07/09 00:44:51;;;;;;;5.82;3.58;;;27.50;96.70;;;;;;4958745;28;20051;-83
2023/07/09 00:47:28;;;;;;;5.78;3.92;;;27.50;96.70;;;;;;4966283;28;20486;-83
2023/07/09 00:50:09;;;;;;;6.60;3.97;;;27.50;96.70;;;;;;4950666;28;20051;-83
2023/07/09 00:52:45;;;;;;;7.43;4.30;;;27.50;96.70;;;;;;4935933;29;20078;-82
2023/07/09 00:55:17;;;;;;;5.80;4.30;;;27.40;96.70;;;;;;4960333;28;20466;-82
2023/07/09 00:57:56;;;;;;;7.45;4.15;;;27.40;96.70;;;;;;4957183;28;20081;-83
2023/07/09 01:00:42;;;;;;;5.38;4.20;;;27.50;96.70;;;;;;4952177;28;21059;-82
2023/07/09 01:03:12;;;;;;;4.97;4.10;;;27.30;96.70;;;;;;4942404;29;20461;-83
2023/07/09 01:05:41;;;;;;;6.43;3.97;;;27.30;96.70;;;;;;4949243;28;20184;-82
2023/07/09 01:08:10;;;;;;;7.85;4.57;;;27.30;96.70;;;;;;4928091;29;20047;-82
2023/07/09 01:10:40;;;;;;;6.43;4.13;;;27.20;96.70;;;;;;4931309;29;20408;-82
2023/07/09 01:13:26;;;;;;;5.55;3.95;;;27.20;96.70;;;;;;4932217;29;20047;-83
2023/07/09 01:15:56;;;;;;;7.18;4.05;;;27.10;96.70;;;;;;4916307;29;20621;-82
2023/07/09 01:18:24;;;;;;;7.10;4.32;;;27.20;96.70;;;;;;4928068;29;20053;-83
2023/07/09 01:21:03;;;;;;;5.55;3.53;;;27.30;96.70;;;;;;4925689;29;20054;-82
2023/07/09 01:23:32;;;;;;;6.57;3.72;;;27.40;96.70;;;;;;4953284;28;20047;-82
2023/07/09 01:26:01;;;;;;;7.05;4.05;;;27.30;96.70;;;;;;4944182;28;20047;-82
2023/07/09 01:28:29;;;;;;;7.25;4.13;;;27.20;96.70;;;;;;4956874;28;20853;-83
2023/07/09 01:30:57;;;;;;;6.32;4.35;;;27.10;96.70;;;;;;4931567;29;20050;-83
2023/07/09 01:33:26;;;;;;;5.10;4.00;;;27.00;96.70;;;;;;4931006;29;20047;-83
2023/07/09 01:36:00;;;;;;;9.00;3.85;;;27.00;96.70;;;;;;4932552;29;20036;-83
2023/07/09 01:38:32;;;;;;;5.50;4.15;;;26.90;96.70;;;;;;4947439;29;20050;-83
2023/07/09 01:41:00;;;;;;;7.30;4.50;;;27.00;96.70;;;;;;4931458;29;20051;-83
2023/07/09 01:43:29;;;;;;;7.30;3.90;;;27.00;96.70;;;;;;4932094;29;21400;-83
2023/07/09 01:45:57;;;;;;;5.65;3.85;;;27.00;96.70;;;;;;4931871;29;20043;-82
2023/07/09 01:48:27;;;;;;;7.25;3.97;;;26.80;96.70;;;;;;4930576;29;20063;-82
2023/07/09 01:50:57;;;;;;;6.18;4.18;;;26.80;96.70;;;;;;4930355;29;20146;-83
2023/07/09 01:53:27;;;;;;;7.03;4.20;;;26.70;96.70;;;;;;4929165;29;20044;-82
2023/07/09 01:55:55;;;;;;;8.15;4.40;;;26.60;96.70;;;;;;4922951;29;20048;-82
2023/07/09 01:58:24;;;;;;;7.90;4.63;;;26.60;96.70;;;;;;4947164;28;20054;-82
2023/07/09 02:00:53;;;;;;;6.43;4.10;;;26.60;96.70;;;;;;4929864;29;20040;-81
2023/07/09 02:03:24;;;;;;;6.25;3.88;;;26.70;96.70;;;;;;4932043;29;20068;-81
2023/07/09 02:05:53;;;;;;;5.80;4.05;;;26.80;96.70;;;;;;4930718;29;20189;-82
2023/07/09 02:08:23;;;;;;;5.38;3.72;;;26.90;96.70;;;;;;4937348;29;20046;-82
2023/07/09 02:10:52;;;;;;;5.35;4.13;;;26.90;96.70;;;;;;4917197;29;20056;-83
2023/07/09 02:13:19;;;;;;;6.07;3.92;;;26.80;96.70;;;;;;4927548;29;20528;-81
2023/07/09 02:15:48;;;;;;;5.80;3.60;;;26.80;96.70;;;;;;4929845;29;20167;-82
2023/07/09 02:18:16;;;;;;;6.72;3.70;;;26.90;96.70;;;;;;4929667;29;20119;-82
2023/07/09 02:20:46;;;;;;;5.85;4.47;;;26.80;96.70;;;;;;4929525;29;20186;-83
2023/07/09 02:23:13;;;;;;;7.22;4.57;;;26.60;96.70;;;;;;4930063;29;20127;-83
2023/07/09 02:25:43;;;;;;;7.47;4.40;;;26.60;96.70;;;;;;4935084;29;20135;-82
2023/07/09 02:28:11;;;;;;;5.03;3.97;;;26.60;96.70;;;;;;4929939;29;20402;-83
2023/07/09 02:30:40;;;;;;;6.57;3.88;;;26.50;96.70;;;;;;4925895;29;20044;-83
2023/07/09 02:33:07;;;;;;;7.30;4.28;;;26.40;96.70;;;;;;4929460;29;20056;-83
2023/07/09 02:35:35;;;;;;;5.90;4.25;;;26.40;96.70;;;;;;4931123;29;20064;-83
2023/07/09 02:38:04;;;;;;;7.72;3.85;;;26.30;96.70;;;;;;4914480;29;20450;-82
2023/07/09 02:40:33;;;;;;;5.85;3.83;;;26.40;96.70;;;;;;4929212;29;20545;-82
2023/07/09 02:43:03;;;;;;;6.60;4.25;;;26.40;96.70;;;;;;4929694;29;20055;-83
2023/07/09 02:45:31;;;;;;;4.82;4.15;;;26.30;96.70;;;;;;4925297;29;20101;-83
2023/07/09 02:48:01;;;;;;;4.80;3.65;;;26.40;96.70;;;;;;4931168;29;20090;-81
2023/07/09 02:50:47;;;;;;;7.05;4.03;;;26.30;96.70;;;;;;4928898;29;20058;-82
2023/07/09 02:53:15;;;;;;;6.25;3.78;;;26.20;96.70;;;;;;4914091;29;20441;-82
2023/07/09 02:55:43;;;;;;;5.05;3.85;;;26.20;96.70;;;;;;4945353;28;20094;-82
2023/07/09 02:58:12;;;;;;;5.82;3.70;;;26.20;96.70;;;;;;4929540;29;20051;-82
2023/07/09 03:00:40;;;;;;;5.03;3.65;;;26.20;96.70;;;;;;4929372;28;20047;-82
2023/07/09 03:03:08;;;;;;;7.15;3.88;;;26.20;96.70;;;;;;4931495;29;20052;-81
2023/07/09 03:05:36;;;;;;;5.63;3.58;;;26.20;96.70;;;;;;4932279;29;20691;-82
2023/07/09 03:08:04;;;;;;;5.32;4.05;;;26.10;96.70;;;;;;4937174;29;20051;-82
2023/07/09 03:10:32;;;;;;;5.68;3.60;;;26.10;96.70;;;;;;4931281;28;20071;-83
2023/07/09 03:13:00;;;;;;;7.25;3.80;;;26.10;96.70;;;;;;4939971;28;20115;-82
2023/07/09 03:15:29;;;;;;;6.95;4.80;;;26.10;96.70;;;;;;4949549;28;20047;-83
2023/07/09 03:17:57;;;;;;;6.22;3.78;;;26.10;96.70;;;;;;4948033;29;20051;-83
2023/07/09 03:20:25;;;;;;;6.93;3.95;;;26.10;96.70;;;;;;4955028;28;20047;-82
2023/07/09 03:22:53;;;;;;;9.00;4.25;;;26.00;96.70;;;;;;4959858;28;20039;-83
2023/07/09 03:25:20;;;;;;;6.60;3.72;;;26.00;96.70;;;;;;4948695;28;20051;-83
2023/07/09 03:27:48;;;;;;;7.13;3.95;;;26.00;96.70;;;;;;4949465;29;20051;-82
2023/07/09 03:30:16;;;;;;;7.32;3.47;;;26.00;96.70;;;;;;4957194;28;20138;-83
2023/07/09 03:32:46;;;;;;;4.30;3.90;;;25.90;96.70;;;;;;4957641;28;20051;-83
2023/07/09 03:35:15;;;;;;;6.53;4.03;;;25.70;96.70;;;;;;4942735;28;20040;-83
2023/07/09 03:37:43;;;;;;;6.80;3.83;;;25.60;96.70;;;;;;4956936;28;20055;-82
2023/07/09 03:40:11;;;;;;;6.32;3.63;;;25.40;96.70;;;;;;4948038;28;20083;-83
2023/07/09 03:42:39;;;;;;;5.25;3.95;;;25.40;96.70;;;;;;4948399;29;20047;-82
2023/07/09 03:45:07;;;;;;;7.43;4.10;;;25.60;96.70;;;;;;4949479;28;20039;-83
2023/07/09 03:47:35;;;;;;;9.77;4.45;;;25.80;96.70;;;;;;4949238;28;20472;-83
2023/07/09 03:50:06;;;;;;;6.20;4.10;;;25.80;96.70;;;;;;4949217;28;20047;-84
2023/07/09 03:52:34;;;;;;;4.70;4.00;;;25.70;96.70;;;;;;4960631;28;20098;-83
2023/07/09 03:55:04;;;;;;;4.88;3.97;;;25.80;96.70;;;;;;4950283;28;20054;-82
2023/07/09 03:57:32;;;;;;;5.82;4.22;;;25.80;96.70;;;;;;4958594;28;20055;-82
2023/07/09 04:00:00;;;;;;;5.72;3.78;;;25.80;96.70;;;;;;4954587;28;20067;-82
2023/07/09 04:02:28;;;;;;;5.57;4.20;;;25.80;96.70;;;;;;4945877;29;20539;-82
2023/07/09 04:04:56;;;;;;;4.57;3.80;;;25.80;96.70;;;;;;4949611;28;20378;-83
2023/07/09 04:07:26;;;;;;;5.30;4.28;;;25.70;96.70;;;;;;4948761;28;20138;-83
2023/07/09 04:09:54;;;;;;;5.00;3.67;;;25.80;96.70;;;;;;4948578;28;20059;-83
2023/07/09 04:12:22;;;;;;;8.55;4.40;;;25.70;96.70;;;;;;4943169;29;20051;-83
2023/07/09 04:14:50;;;;;;;6.05;4.32;;;25.70;96.70;;;;;;4939180;28;20065;-83
2023/07/09 04:17:22;;;;;;;5.70;4.22;;;25.70;96.70;;;;;;4934081;29;20040;-82
2023/07/09 04:19:51;;;;;;;7.63;4.28;;;25.60;96.70;;;;;;4946811;28;20051;-82
2023/07/09 04:22:18;;;;;;;7.13;3.92;;;25.50;96.70;;;;;;4947686;29;20494;-83
2023/07/09 04:24:49;;;;;;;6.60;3.85;;;25.50;96.70;;;;;;4948678;28;20059;-83
2023/07/09 04:27:17;;;;;;;5.45;4.10;;;25.50;96.70;;;;;;4955809;28;20072;-82
2023/07/09 04:29:45;;;;;;;7.55;4.28;;;25.40;96.70;;;;;;4926770;29;20067;-82
2023/07/09 04:32:15;;;;;;;10.93;4.55;;;25.40;96.70;;;;;;4941168;28;20047;-83
2023/07/09 04:34:43;;;;;;;7.05;4.47;;;25.50;96.70;;;;;;4956547;28;20051;-83
2023/07/09 04:37:16;;;;;;;5.60;4.35;;;25.40;96.70;;;;;;4948708;28;20089;-82
2023/07/09 04:39:44;;;;;;;6.70;4.57;;;25.40;96.70;;;;;;4943394;28;20070;-83
2023/07/09 04:42:16;;;;;;;7.15;4.75;;;25.50;96.70;;;;;;4953483;28;20159;-83
2023/07/09 04:44:45;;;;;;;6.85;4.93;;;25.50;96.70;;;;;;4948682;28;20505;-83
2023/07/09 04:47:13;;;;;;;5.97;4.55;;;25.60;96.70;;;;;;4934035;29;20043;-82
2023/07/09 04:49:41;;;;;;;9.60;5.95;;;25.70;96.70;;;;;;4939697;28;20631;-83
2023/07/09 04:52:14;;;;;;;7.25;5.28;;;25.70;96.70;;;;;;4945435;28;20063;-83
2023/07/09 04:54:44;;;;;;;8.70;6.22;;;25.70;96.70;;;;;;4952254;28;20051;-82
2023/07/09 04:57:13;;;;;;;10.70;6.20;;;25.70;96.70;;;;;;4968478;28;20081;-83
2023/07/09 04:59:41;;;;;;;11.02;6.45;;;25.80;96.70;;;;;;4961585;28;20047;-83
2023/07/09 05:02:09;;;;;;;10.82;7.13;;;25.80;96.70;;;;;;4961697;28;20075;-83
2023/07/09 05:04:37;;;;;;;9.27;6.22;;;25.90;96.70;;;;;;4961489;28;20050;-84
2023/07/09 05:07:06;;;;;;;9.80;6.28;;;25.80;96.70;;;;;;4957917;28;20146;-83
2023/07/09 05:09:34;;;;;;;9.73;6.53;;;25.70;96.70;;;;;;4961736;28;20055;-83
2023/07/09 05:12:02;;;;;;;10.13;6.30;;;25.70;96.70;;;;;;4958680;28;20062;-83
2023/07/09 05:14:32;;;;;;;10.30;6.25;;;25.90;96.70;;;;;;4966703;28;20142;-83
2023/07/09 05:17:00;;;;;;;8.20;6.40;;;25.90;96.70;;;;;;4957796;28;20051;-83
2023/07/09 05:19:28;;;;;;;7.65;5.85;;;25.80;96.70;;;;;;4951693;28;20039;-83
2023/07/09 05:21:56;;;;;;;8.57;5.43;;;25.90;96.70;;;;;;4951264;28;20146;-83
2023/07/09 05:24:24;;;;;;;9.70;5.20;;;25.80;96.70;;;;;;4966187;28;20537;-83
2023/07/09 05:26:56;;;;;;;7.03;5.60;;;25.90;96.70;;;;;;4963986;28;20074;-83
2023/07/09 05:29:26;;;;;;;6.93;5.38;;;26.00;96.70;;;;;;4948641;28;20055;-82
2023/07/09 05:31:55;;;;;;;7.60;4.93;;;26.00;96.70;;;;;;4951193;28;20046;-83
2023/07/09 05:34:23;;;;;;;7.82;5.38;;;26.10;96.70;;;;;;4965464;28;20047;-84
2023/07/09 05:36:51;;;;;;;6.97;4.68;;;26.20;96.70;;;;;;4955690;28;20066;-83
2023/07/09 05:39:19;;;;;;;7.78;5.15;;;26.20;96.70;;;;;;4965573;28;20039;-83
2023/07/09 05:41:47;;;;;;;6.35;4.60;;;26.20;96.70;;;;;;4957540;28;20117;-83
2023/07/09 05:44:15;;;;;;;8.93;4.80;;;26.30;96.70;;;;;;4940686;28;20062;-83
2023/07/09 05:46:43;;;;;;;7.60;4.60;;;26.20;96.70;;;;;;4951167;29;20058;-83
2023/07/09 05:49:12;;;;;;;7.05;5.03;;;26.30;96.70;;;;;;4951010;28;20051;-82
2023/07/09 05:51:42;;;;;;;8.35;5.20;;;26.30;96.70;;;;;;4926388;29;20140;-83
2023/07/09 05:54:11;;;;;;;8.48;5.30;;;26.30;96.70;;;;;;4950617;28;20043;-82
2023/07/09 05:56:39;;;;;;;9.32;5.28;;;26.40;96.70;;;;;;4956900;28;20058;-83
2023/07/09 05:59:07;;;;;;;6.80;4.65;;;26.50;96.70;;;;;;4934028;29;20138;-84
2023/07/09 06:01:35;;;;;;;7.60;3.95;;;26.60;96.70;;;;;;4956213;28;20106;-84
2023/07/09 06:04:04;;;;;;;7.60;5.75;;;26.60;96.70;;;;;;4956999;28;20044;-84
2023/07/09 06:06:34;;;;;;;7.68;5.05;;;26.70;96.70;;;;;;4942353;28;20154;-84
2023/07/09 06:09:04;;;;;;;5.70;4.53;;;26.60;96.70;;;;;;4949169;29;20054;-85
2023/07/09 06:11:55;;;;;;;7.45;5.00;;;26.70;96.70;;;;;;4959867;28;20117;-84
2023/07/09 06:14:23;;;;;;;7.78;5.03;;;26.70;96.70;;;;;;4944749;28;20079;-83
2023/07/09 06:16:51;;;;;;;7.45;5.38;;;26.70;96.70;;;;;;4946169;28;20090;-83
2023/07/09 06:19:19;;;;;;;6.57;4.75;;;26.80;96.70;;;;;;4964533;28;20067;-83
2023/07/09 06:21:50;;;;;;;7.68;4.90;;;26.80;96.70;;;;;;4965334;28;20043;-83
2023/07/09 06:24:18;;;;;;;11.50;5.60;;;26.80;96.70;;;;;;4949001;28;20137;-84
2023/07/09 06:26:45;;;;;;;7.78;5.20;;;26.80;96.70;;;;;;4933636;28;20553;-83
2023/07/09 06:29:13;;;;;;;9.52;6.03;;;26.90;96.70;;;;;;4951234;28;20072;-84
2023/07/09 06:31:42;;;;;;;14.18;6.63;;;26.90;96.70;;;;;;4942520;29;20043;-82
2023/07/09 06:34:10;;;;;;;9.40;5.38;;;26.90;96.70;;;;;;4948689;29;20043;-83
2023/07/09 06:36:38;;;;;;;6.55;4.78;;;27.00;96.70;;;;;;4949458;28;20061;-83
2023/07/09 06:39:09;;;;;;;6.05;5.00;;;27.10;96.70;;;;;;4950524;28;20054;-83
2023/07/09 06:41:38;;;;;;;9.98;5.22;;;27.10;96.70;;;;;;4957965;28;20445;-83
2023/07/09 06:44:09;;;;;;;9.82;5.55;;;27.10;96.70;;;;;;4964575;28;20071;-83
2023/07/09 06:46:38;;;;;;;7.90;5.50;;;27.20;96.70;;;;;;4964538;28;20074;-84
2023/07/09 06:49:09;;;;;;;8.05;5.22;;;27.30;96.70;;;;;;4948930;28;20784;-83
2023/07/09 06:51:40;;;;;;;9.65;6.00;;;27.30;96.70;;;;;;4956190;28;20099;-83
2023/07/09 06:54:11;;;;;;;7.85;5.80;;;27.40;96.70;;;;;;4948393;28;20067;-83
2023/07/09 06:56:39;;;;;;;6.85;5.85;;;27.50;96.70;;;;;;4951083;28;20047;-83
2023/07/09 06:59:07;;;;;;;7.88;5.50;;;27.50;96.70;;;;;;4950044;29;20043;-83
2023/07/09 07:01:35;;;;;;;7.68;6.13;;;27.60;96.70;;;;;;4964591;28;20113;-83
2023/07/09 07:04:03;;;;;;;8.05;6.05;;;27.70;96.70;;;;;;4940064;28;20524;-83
2023/07/09 07:06:31;;;;;;;6.72;5.70;;;27.70;96.70;;;;;;4951400;28;20059;-83
2023/07/09 07:08:59;;;;;;;7.07;5.63;;;27.80;96.70;;;;;;4958214;28;20055;-83
2023/07/09 07:11:34;;;;;;;5.25;4.55;;;27.90;96.70;;;;;;4959223;28;20055;-83
2023/07/09 07:14:02;;;;;;;7.03;5.10;;;28.00;96.70;;;;;;4956799;28;20043;-83
2023/07/09 07:16:30;;;;;;;6.28;4.90;;;28.00;96.70;;;;;;4939220;28;20066;-83
2023/07/09 07:18:58;;;;;;;6.55;4.72;;;28.10;96.70;;;;;;4949996;28;20043;-83
2023/07/09 07:21:26;;;;;;;6.95;4.70;;;28.20;96.70;;;;;;4957182;28;21815;-82
2023/07/09 07:23:53;;;;;;;6.15;4.43;;;28.20;96.70;;;;;;4949357;28;20051;-83
2023/07/09 07:26:22;;;;;;;8.73;4.72;;;28.30;96.70;;;;;;4949165;28;20397;-84
2023/07/09 07:28:55;;;;;;;5.55;4.20;;;28.40;96.70;;;;;;4937685;29;20106;-84
2023/07/09 07:31:24;;;;;;;7.20;4.50;;;28.50;96.70;;;;;;4952184;28;20047;-82
2023/07/09 07:34:04;;;;;;;5.93;4.47;;;28.50;96.70;;;;;;4953645;28;20448;-83
2023/07/09 07:36:32;;;;;;;6.75;4.28;;;28.60;96.70;;;;;;4961885;28;20113;-83
2023/07/09 07:39:06;;;;;;;7.68;4.50;;;28.70;96.70;;;;;;4948936;28;20572;-83
2023/07/09 07:41:34;;;;;;;5.82;4.07;;;28.70;96.70;;;;;;4932490;28;20502;-82
2023/07/09 07:44:04;;;;;;;6.03;4.20;;;28.70;96.70;;;;;;4963910;28;20047;-85
2023/07/09 07:46:33;;;;;;;7.32;4.68;;;28.80;96.70;;;;;;4943364;29;20051;-84
2023/07/09 07:49:01;;;;;;;8.80;4.55;;;28.80;96.70;;;;;;4964417;28;20995;-84
2023/07/09 07:51:28;;;;;;;5.38;4.30;;;28.90;96.70;;;;;;4963298;28;20043;-84
2023/07/09 07:53:56;;;;;;;7.75;4.53;;;29.10;96.70;;;;;;4949087;28;20703;-84
2023/07/09 07:56:25;;;;;;;5.78;4.10;;;29.10;96.70;;;;;;4963989;28;20113;-80
2023/07/09 07:58:53;;;;;;;5.10;4.35;;;29.10;96.70;;;;;;4943002;28;20379;-84
2023/07/09 08:01:23;;;;;;;5.35;3.95;;;29.10;96.70;;;;;;4957003;28;20085;-82
2023/07/09 08:03:50;;;;;;;4.18;3.72;;;29.20;96.70;;;;;;4943395;29;20509;-84
2023/07/09 08:06:19;;;;;;;5.90;4.15;;;29.30;96.70;;;;;;4949545;28;20055;-84
2023/07/09 08:08:48;;;;;;;5.55;4.50;;;29.40;96.70;;;;;;4956005;28;20047;-84
2023/07/09 08:11:18;;;;;;;5.30;4.05;;;29.40;96.70;;;;;;4964250;28;20481;-84
2023/07/09 08:13:46;;;;;;;7.50;4.50;;;29.50;96.70;;;;;;4963788;28;20102;-84
2023/07/09 08:16:16;;;;;;;6.95;3.90;;;29.50;96.70;;;;;;4960214;28;20043;-84
2023/07/09 08:18:56;;;;;;;5.85;3.90;;;29.50;96.70;;;;;;4962732;28;20055;-83
2023/07/09 08:21:25;;;;;;;6.38;3.85;;;29.60;96.70;;;;;;4948910;28;20052;-85
2023/07/09 08:23:53;;;;;;;7.68;4.10;;;29.60;96.70;;;;;;4948162;29;20452;-81
2023/07/09 08:26:21;;;;;;;6.22;4.15;;;29.70;96.70;;;;;;4931084;28;20053;-81
2023/07/09 08:28:48;;;;;;;5.72;4.25;;;29.80;96.70;;;;;;4945524;29;20051;-81
2023/07/09 08:31:16;;;;;;;5.93;4.30;;;29.80;96.70;;;;;;4965247;28;20047;-82
2023/07/09 08:33:44;;;;;;;8.45;4.40;;;29.90;96.70;;;;;;4940894;28;20393;-81
2023/07/09 08:36:14;;;;;;;4.93;4.20;;;29.90;96.70;;;;;;4951023;28;20048;-83
2023/07/09 08:38:42;;;;;;;5.85;3.78;;;30.00;96.70;;;;;;4951851;28;20047;-82
2023/07/09 08:41:35;;;;;;;5.93;3.97;;;30.20;96.70;;;;;;4957386;28;20055;-81
2023/07/09 08:44:28;;;;;;;7.03;4.10;;;30.30;96.70;;;;;;4935003;28;20066;-81
2023/07/09 08:47:04;;;;;;;6.10;4.30;;;30.40;96.70;;;;;;4954373;28;20545;-81
2023/07/09 08:49:40;;;;;;;8.15;4.50;;;30.40;96.70;;;;;;4942762;28;20051;-82
2023/07/09 08:52:17;;;;;;;5.28;4.28;;;30.50;96.70;;;;;;4950356;28;20094;-81
2023/07/09 08:54:48;;;;;;;10.65;4.53;;;30.60;96.70;;;;;;4964420;28;20071;-82
2023/07/09 08:57:23;;;;;;;5.15;4.00;;;30.60;96.70;;;;;;4951398;28;20164;-84
2023/07/09 08:59:56;;;;;;;5.57;3.78;;;30.80;96.70;;;;;;4941921;28;20113;-81
2023/07/09 09:02:31;;;;;;;6.43;4.03;;;30.90;96.70;;;;;;4945874;28;20051;-80
2023/07/09 09:05:02;;;;;;;9.35;4.38;;;30.90;96.70;;;;;;4944926;28;20130;-78
2023/07/09 09:07:39;;;;;;;5.57;3.85;;;30.90;96.70;;;;;;4949542;28;20047;-81
2023/07/09 09:10:13;;;;;;;6.70;4.57;;;31.00;96.70;;;;;;4944891;28;20050;-79
2023/07/09 09:12:51;;;;;;;5.40;4.63;;;30.90;96.70;;;;;;4946323;28;20098;-84
2023/07/09 09:15:21;;;;;;;7.35;4.38;;;31.00;96.70;;;;;;4936258;29;20051;-82
2023/07/09 09:17:53;;;;;;;4.95;4.05;;;31.00;96.70;;;;;;4948642;28;20050;-78
2023/07/09 09:20:22;;;;;;;9.15;4.72;;;31.10;96.70;;;;;;4950228;28;20110;-78
2023/07/09 09:22:59;;;;;;;5.32;4.05;;;31.20;96.70;;;;;;4932994;29;20039;-80
2023/07/09 09:25:29;;;;;;;5.47;3.95;;;31.20;96.70;;;;;;4948355;28;20043;-82
2023/07/09 09:27:59;;;;;;;5.25;4.03;;;31.30;96.70;;;;;;4950929;28;20071;-82
2023/07/09 09:30:28;;;;;;;5.72;4.25;;;31.50;96.70;;;;;;4956852;28;20071;-81
2023/07/09 09:32:57;;;;;;;6.97;4.10;;;31.60;96.70;;;;;;4950583;28;20130;-81
2023/07/09 09:35:30;;;;;;;6.47;4.40;;;31.60;96.70;;;;;;4953165;28;20485;-82
2023/07/09 09:38:01;;;;;;;6.22;4.32;;;31.60;96.70;;;;;;4950801;28;20134;-82
2023/07/09 09:40:34;;;;;;;6.03;4.60;;;31.70;96.70;;;;;;4944480;28;20051;-81
2023/07/09 09:43:08;;;;;;;5.30;4.50;;;31.90;96.70;;;;;;4926328;28;20051;-82
2023/07/09 09:45:39;;;;;;;6.68;3.92;;;32.00;96.70;;;;;;4942372;28;20047;-83
2023/07/09 09:48:13;;;;;;;9.38;4.22;;;32.20;96.70;;;;;;4936138;29;20106;-83
2023/07/09 09:50:42;;;;;;;6.20;4.33;;;32.10;96.70;;;;;;4955348;28;20564;-81
2023/07/09 09:53:20;;;;;;;8.18;4.00;;;32.10;96.70;;;;;;4929514;28;20043;-81
2023/07/09 09:55:50;;;;;;;5.40;4.20;;;32.20;96.70;;;;;;4949998;28;20391;-81
2023/07/09 09:58:18;;;;;;;4.63;3.90;;;32.10;96.70;;;;;;4947647;28;20597;-80
2023/07/09 10:00:51;;;;;;;5.82;3.88;;;32.20;96.70;;;;;;4949764;28;20378;-83
2023/07/09 10:03:19;;;;;;;6.30;3.85;;;32.40;96.70;;;;;;4949313;28;20064;-82
2023/07/09 10:05:52;;;;;;;6.10;4.15;;;32.60;96.70;;;;;;4953324;28;20142;-75
2023/07/09 10:08:33;;;;;;;5.80;4.00;;;32.80;96.70;;;;;;4955286;28;20053;-79
2023/07/09 10:11:12;;;;;;;5.82;4.20;;;32.80;96.70;;;;;;4953110;28;20784;-80
2023/07/09 10:13:44;;;;;;;6.43;3.88;;;32.90;96.70;;;;;;4953054;28;20485;-81
2023/07/09 10:16:21;;;;;;;8.43;4.40;;;33.00;96.70;;;;;;4940519;29;20106;-81
2023/07/09 10:18:58;;;;;;;6.53;4.22;;;33.10;96.70;;;;;;4950068;28;20043;-82
2023/07/09 10:21:34;;;;;;;8.00;5.05;;;33.00;96.70;;;;;;4954459;28;20055;-83
2023/07/09 10:24:08;;;;;;;;;;;33.10;96.70;;;;;;4962294;28;20055;-81
2023/07/09 10:26:41;;;;;;;5.72;3.63;;;33.20;96.70;;;;;;4938420;28;20559;-81
2023/07/09 10:29:32;;;;;;;6.28;3.95;;;33.30;96.70;;;;;;4948426;28;20126;-80
2023/07/09 10:32:12;;;;;;;5.68;3.67;;;33.50;96.70;;;;;;4946537;28;20043;-80
2023/07/09 10:34:46;;;;;;;4.65;3.30;;;33.70;96.70;;;;;;4954693;28;20057;-80
2023/07/09 10:37:32;;;;;;;6.68;4.03;;;33.70;96.70;;;;;;4936613;28;20059;-81
2023/07/09 10:40:08;;;;;;;6.40;3.85;;;33.80;96.70;;;;;;4947334;28;20074;-80
2023/07/09 10:42:41;;;;;;;6.57;3.85;;;33.80;96.70;;;;;;4952463;28;20102;-80
2023/07/09 10:45:11;;;;;;;5.85;4.07;;;34.00;96.70;;;;;;4961074;28;20059;-80
2023/07/09 10:47:43;;;;;;;6.47;3.47;;;34.20;96.70;;;;;;4961751;28;20067;-80
2023/07/09 10:50:18;;;;;;;5.90;4.13;;;34.30;96.70;;;;;;4944762;28;20055;-80
2023/07/09 10:52:52;;;;;;;7.70;4.13;;;34.30;96.70;;;;;;4942774;29;20701;-80
2023/07/09 10:58:46;;;;;;;5.03;4.20;;;34.30;96.70;;;;;;4931062;29;20047;-80
2023/07/09 11:01:15;;;;;;;5.63;3.53;;;34.50;96.70;;;;;;4948051;28;20508;-82
2023/07/09 11:03:49;;;;;;;4.18;3.78;;;34.50;96.70;;;;;;4932004;29;20094;-81
2023/07/09 11:06:22;;;;;;;5.18;3.78;;;34.60;96.70;;;;;;4947370;28;20121;-81
2023/07/09 11:08:53;;;;;;;5.53;3.40;;;34.50;96.70;;;;;;4945675;28;20039;-81
2023/07/09 11:11:34;;;;;;;5.03;3.75;;;34.70;96.70;;;;;;4945215;28;20082;-80
2023/07/09 11:14:10;;;;;;;6.20;5.15;;;34.80;96.70;;;;;;4961806;28;20098;-80
2023/07/09 11:16:40;;;;;;;;;;;35.00;96.70;;;;;;4945944;29;20074;-80
2023/07/09 11:19:16;;;;;;;7.47;5.22;;;35.00;96.70;;;;;;4944890;28;19985;-81
2023/07/09 11:21:58;;;;;;;;;;;35.00;96.70;;;;;;4939726;29;20054;-80
2023/07/09 11:24:32;;;;;;;4.32;3.55;;;35.20;96.70;;;;;;4946954;28;20009;-81
2023/07/09 11:27:02;;;;;;;4.72;3.90;;;35.30;96.70;;;;;;4961037;28;20126;-81
2023/07/09 11:29:30;;;;;;;6.13;3.63;;;35.40;96.70;;;;;;4939437;28;20138;-80
2023/07/09 11:32:09;;;;;;;4.00;3.28;;;35.50;96.70;;;;;;4947790;28;20055;-81
2023/07/09 11:34:46;;;;;;;4.57;3.55;;;35.70;96.70;;;;;;4961439;28;20043;-81
2023/07/09 11:37:16;;;;;;;4.72;3.22;;;35.70;96.70;;;;;;4952882;28;20151;-81
2023/07/09 11:39:46;;;;;;;5.70;3.92;;;35.90;96.70;;;;;;4961267;28;20513;-81
2023/07/09 11:42:28;;;;;;;4.35;3.30;;;36.10;96.70;;;;;;4942784;29;20055;-81
2023/07/09 11:45:06;;;;;;;5.57;3.25;;;36.00;96.70;;;;;;4947261;28;20592;-80
2023/07/09 11:47:41;;;;;;;7.68;4.05;;;36.10;96.70;;;;;;4937411;28;20416;-80
2023/07/09 11:50:22;;;;;;;5.40;3.47;;;36.30;96.70;;;;;;4951441;28;20158;-81
2023/07/09 11:52:54;;;;;;;5.55;3.53;;;36.10;96.70;;;;;;4945575;29;20055;-80
2023/07/09 11:55:28;;;;;;;4.15;3.28;;;36.00;96.70;;;;;;4960528;28;20035;-80
2023/07/09 11:58:01;;;;;;;5.35;3.42;;;36.00;96.70;;;;;;4954830;28;20047;-82
2023/07/09 12:00:37;;;;;;;4.40;3.88;;;36.10;96.70;;;;;;4961294;28;20531;-80
2023/07/09 12:03:06;;;;;;;;;;;36.20;96.70;;;;;;4953530;28;20047;-81
2023/07/09 12:05:35;;;;;;;5.90;3.25;;;36.10;96.70;;;;;;4955039;28;20397;-81
2023/07/09 12:08:06;;;;;;;3.25;2.95;;;36.20;96.70;;;;;;4951343;28;20152;-82
2023/07/09 12:10:36;;;;;;;10.05;3.78;;;36.30;96.70;;;;;;4948066;28;20061;-83
2023/07/09 12:13:09;;;;;;;4.20;3.60;;;36.40;96.70;;;;;;4954651;28;20051;-82
2023/07/09 12:15:39;;;;;;;6.43;3.38;;;36.60;96.70;;;;;;4945918;28;20416;-81
2023/07/09 12:18:12;;;;;;;4.07;3.65;;;36.60;96.70;;;;;;4949804;28;20075;-81
2023/07/09 12:20:41;;;;;;;5.88;3.70;;;36.80;96.70;;;;;;4950068;28;20578;-81
2023/07/09 12:23:20;;;;;;;4.60;3.30;;;37.00;96.70;;;;;;4964587;28;20055;-82
2023/07/09 12:25:49;;;;;;;4.20;3.50;;;37.10;96.70;;;;;;4964201;28;20057;-81
2023/07/09 12:28:19;;;;;;;5.95;3.75;;;37.10;96.70;;;;;;4950222;28;20544;-80
2023/07/09 12:30:48;;;;;;;4.72;3.45;;;37.00;96.70;;;;;;4950563;28;20051;-81
2023/07/09 12:33:17;;;;;;;4.05;3.20;;;37.00;96.70;;;;;;4952522;28;20047;-81
2023/07/09 12:35:47;;;;;;;4.57;3.00;;;37.00;96.70;;;;;;4946880;28;20049;-83
2023/07/09 12:38:22;;;;;;;4.22;3.30;;;37.10;96.70;;;;;;4963136;28;20039;-81
2023/07/09 12:40:51;;;;;;;;;;;37.40;96.70;;;;;;4930358;28;20055;-81
2023/07/09 12:43:25;;;;;;;4.22;3.30;;;37.40;96.70;;;;;;4949549;28;19931;-80
2023/07/09 12:45:54;;;;;;;6.13;3.42;;;37.30;96.70;;;;;;4958146;28;20564;-81
2023/07/09 12:48:25;;;;;;;7.45;3.70;;;37.50;96.70;;;;;;4963830;28;20497;-81
2023/07/09 12:50:57;;;;;;;5.47;4.00;;;37.50;96.70;;;;;;4947543;28;20130;-82
2023/07/09 12:53:27;;;;;;;5.35;3.67;;;37.20;96.70;;;;;;4932460;28;20058;-82
2023/07/09 12:55:58;;;;;;;4.68;3.58;;;37.20;96.70;;;;;;4949085;28;20047;-81
2023/07/09 12:58:30;;;;;;;7.28;3.85;;;37.10;96.70;;;;;;4949591;28;20047;-82
2023/07/09 13:01:04;;;;;;;5.15;3.47;;;37.10;96.70;;;;;;4949360;28;20082;-82
2023/07/09 13:03:34;;;;;;;6.22;3.55;;;37.50;96.70;;;;;;4963463;28;20043;-82
2023/07/09 13:06:05;;;;;;;6.15;3.28;;;37.50;96.70;;;;;;4963755;28;20051;-82
2023/07/09 13:08:42;;;;;;;6.60;3.60;;;37.70;96.70;;;;;;4950092;28;20067;-82
2023/07/09 13:11:16;;;;;;;5.35;3.80;;;37.80;96.70;;;;;;4962979;28;20051;-81